Morses Mills, Vermont
Current Conditions -  °F | °C
As of 9:35 AM on Sunday 23 Nov 2014 (Local Time) from KCDA Reporting Station
Haze Haze  
Wind Chill: 37°   Ceiling: 1400
Heat Index: 37°   Visibility: 3mi
Dew Point: 35°   Wind: 0mph
Humidity: 92%   Direction: NA
Pressure: 30.05"   Gusts: NA
Location:  44.3801°N, 72.0925°W
Report Text: KCDA 231435Z AUTO 00000KT 3SM BR SCT005 OVC014 03/01 A3005 RMK AO2 T00260014
Loading
Personal Weather Stations






























Interactive Weather Map New forecast layout! Learn more

10-Day Weather Forecast

Advertisements
Track Severe Weather on mobile